createdAt,value
2019-04-04T00:00:49.446Z,6.2
2019-04-04T00:02:49.749Z,6.2
2019-04-04T00:04:52.265Z,6.4
2019-04-04T00:06:50.086Z,6.2
2019-04-04T00:08:50.134Z,5.9
2019-04-04T00:10:50.155Z,6.4
2019-04-04T00:12:50.348Z,6.4
2019-04-04T00:14:50.302Z,6.1
2019-04-04T00:16:49.570Z,6.1
2019-04-04T00:18:49.562Z,6.4
2019-04-04T00:20:49.640Z,6.4
2019-04-04T00:22:49.685Z,6.1
2019-04-04T00:24:49.813Z,6.0
2019-04-04T00:26:49.890Z,6.4
2019-04-04T00:28:49.964Z,6.5
2019-04-04T00:30:49.957Z,6.5
2019-04-04T00:32:50.865Z,6.8
2019-04-04T00:34:49.675Z,6.7
2019-04-04T00:36:49.781Z,6.6
2019-04-04T00:38:49.823Z,6.8
2019-04-04T00:40:49.903Z,6.8
2019-04-04T00:42:49.858Z,6.9
2019-04-04T00:44:49.816Z,6.8
2019-04-04T00:46:49.919Z,7.1
2019-04-04T00:48:49.979Z,7.2
2019-04-04T00:50:50.062Z,7.2
2019-04-04T00:52:50.103Z,7.3
2019-04-04T00:54:50.154Z,7.0
2019-04-04T00:56:50.223Z,7.0
2019-04-04T00:58:51.926Z,7.6
2019-04-04T01:00:49.516Z,7.6
2019-04-04T01:02:49.641Z,7.5
2019-04-04T01:04:50.107Z,8.0
2019-04-04T01:06:50.370Z,7.8
2019-04-04T01:08:50.378Z,7.8
2019-04-04T01:10:50.338Z,7.9
2019-04-04T01:12:52.071Z,7.9
2019-04-04T01:14:49.872Z,8.0
2019-04-04T01:16:49.511Z,8.0
2019-04-04T01:18:49.574Z,7.9
2019-04-04T01:20:50.569Z,8.2
2019-04-04T01:22:50.410Z,8.1
2019-04-04T01:24:49.577Z,8.1
2019-04-04T01:26:49.783Z,8.4
2019-04-04T01:28:50.051Z,8.8
2019-04-04T01:30:50.179Z,8.8
2019-04-04T01:32:50.315Z,8.2
2019-04-04T01:34:51.920Z,9.1
2019-04-04T01:36:49.798Z,8.4
2019-04-04T01:38:49.797Z,8.4
2019-04-04T01:40:49.784Z,8.5
2019-04-04T01:42:49.907Z,9.2
2019-04-04T01:44:49.899Z,9.1
2019-04-04T01:46:50.131Z,9.2
2019-04-04T01:48:50.593Z,9.2
2019-04-04T01:50:49.753Z,9.5
2019-04-04T01:52:49.774Z,9.4
2019-04-04T01:54:49.821Z,9.5
2019-04-04T01:56:50.088Z,10.2
2019-04-04T01:58:50.153Z,10.2
2019-04-04T02:00:50.259Z,10.5
2019-04-04T02:02:51.818Z,10.6
2019-04-04T02:04:50.093Z,10.2
2019-04-04T02:06:50.159Z,10.2
2019-04-04T02:08:49.762Z,10.2
2019-04-04T02:10:49.759Z,11.3
2019-04-04T02:12:49.764Z,10.8
2019-04-04T02:14:49.797Z,11.1
2019-04-04T02:16:51.570Z,11.1
2019-04-04T02:18:49.723Z,11.1
2019-04-04T02:20:49.487Z,11.4
2019-04-04T02:22:49.475Z,11.3
2019-04-04T02:24:49.575Z,10.7
2019-04-04T02:26:49.832Z,10.7
2019-04-04T02:28:49.933Z,11.0
2019-04-04T02:30:49.979Z,10.4
2019-04-04T02:32:50.158Z,10.6
2019-04-04T02:34:49.510Z,10.6
2019-04-04T02:36:49.888Z,11.0
2019-04-04T02:38:50.028Z,11.1
2019-04-04T02:40:50.061Z,11.6
2019-04-04T02:42:53.892Z,11.1
2019-04-04T02:44:49.624Z,11.3
2019-04-04T02:46:49.872Z,11.3
2019-04-04T02:48:49.928Z,10.9
2019-04-04T02:50:50.040Z,11.2
2019-04-04T02:52:50.229Z,12.2
2019-04-04T02:54:50.213Z,12.2
2019-04-04T02:56:49.457Z,12.1
2019-04-04T02:58:49.704Z,11.5
2019-04-04T03:00:49.749Z,11.9
2019-04-04T03:02:49.822Z,12.2
2019-04-04T03:04:50.330Z,12.2
2019-04-04T03:06:49.589Z,12.3
2019-04-04T03:08:49.624Z,11.1
2019-04-04T03:10:49.759Z,12.3
2019-04-04T03:12:49.946Z,12.3
2019-04-04T03:14:50.617Z,11.7
2019-04-04T03:16:50.151Z,12.1
2019-04-04T03:18:50.192Z,12.1
2019-04-04T03:20:50.708Z,12.1
2019-04-04T03:22:49.874Z,12.2
2019-04-04T03:24:49.945Z,12.2
2019-04-04T03:26:52.478Z,11.8
2019-04-04T03:28:49.599Z,14.1
2019-04-04T03:30:58.022Z,14.3
2019-04-04T03:32:53.702Z,14.0
2019-04-04T03:34:51.018Z,14.0
2019-04-04T03:36:50.132Z,13.9
2019-04-04T03:38:50.275Z,13.7
2019-04-04T03:40:50.300Z,14.7
2019-04-04T03:42:50.431Z,15.2
2019-04-04T03:44:53.243Z,15.2
2019-04-04T03:46:49.901Z,16.2
2019-04-04T03:48:50.817Z,15.7
2019-04-04T03:50:50.241Z,14.8
2019-04-04T03:52:50.317Z,14.4
2019-04-04T03:54:52.717Z,14.4
2019-04-04T03:56:49.704Z,14.3
2019-04-04T03:58:49.797Z,14.3
2019-04-04T04:00:49.806Z,14.8
2019-04-04T04:02:50.790Z,14.8
2019-04-04T04:04:50.242Z,14.7
2019-04-04T04:06:50.344Z,15.0
2019-04-04T04:08:53.409Z,15.0
2019-04-04T04:10:50.305Z,20.8
2019-04-04T04:12:49.475Z,20.8
2019-04-04T04:14:53.687Z,14.2
2019-04-04T04:16:49.555Z,13.5
2019-04-04T04:18:53.873Z,12.0
2019-04-04T04:20:49.517Z,12.0
2019-04-04T04:22:50.861Z,12.6
2019-04-04T04:24:49.783Z,12.7
2019-04-04T04:26:50.389Z,12.1
2019-04-04T04:28:52.029Z,12.1
2019-04-04T04:30:49.637Z,11.9
2019-04-04T04:32:49.744Z,12.1
2019-04-04T04:34:50.121Z,12.2
2019-04-04T04:36:49.546Z,12.2
2019-04-04T04:38:49.546Z,11.6
2019-04-04T04:40:49.656Z,11.6
2019-04-04T04:42:49.753Z,12.4
2019-04-04T04:44:49.907Z,11.9
2019-04-04T04:46:50.961Z,11.1
2019-04-04T04:48:50.315Z,11.0
2019-04-04T04:50:50.427Z,12.1
2019-04-04T04:52:49.479Z,12.1
2019-04-04T04:54:49.483Z,11.6
2019-04-04T04:56:49.788Z,10.9
2019-04-04T04:58:49.760Z,11.5
2019-04-04T05:00:49.774Z,11.5
2019-04-04T05:02:51.000Z,11.6
2019-04-04T05:04:50.146Z,11.6
2019-04-04T05:06:50.268Z,11.8
2019-04-04T05:08:50.410Z,13.5
2019-04-04T05:10:50.348Z,13.5
2019-04-04T05:12:52.671Z,11.4
2019-04-04T05:14:49.752Z,11.4
2019-04-04T05:16:49.897Z,21.0
2019-04-04T05:18:50.065Z,21.0
2019-04-04T05:20:50.091Z,183.0
2019-04-04T05:22:50.239Z,85.4
2019-04-04T05:25:06.682Z,76.0
2019-04-04T05:26:49.847Z,135.2
2019-04-04T05:28:49.995Z,86.1
2019-04-04T05:30:50.113Z,86.1
2019-04-04T05:32:52.399Z,20.1
2019-04-04T05:34:50.095Z,214.9
2019-04-04T05:36:49.872Z,118.5
2019-04-04T05:38:49.926Z,118.5
2019-04-04T05:40:50.090Z,22.5
2019-04-04T05:42:50.163Z,17.9
2019-04-04T05:44:50.150Z,26.4
2019-04-04T05:46:51.864Z,23.1
2019-04-04T05:48:50.178Z,23.1
2019-04-04T05:50:50.124Z,16.4
2019-04-04T05:52:50.183Z,16.3
2019-04-04T05:54:50.273Z,46.2
2019-04-04T05:56:49.657Z,88.8
2019-04-04T05:58:51.053Z,88.8
2019-04-04T06:00:49.738Z,20.8
2019-04-04T06:02:49.877Z,13.2
2019-04-04T06:04:50.894Z,13.2
2019-04-04T06:06:49.484Z,39.9
2019-04-04T06:08:49.677Z,39.9
2019-04-04T06:10:50.068Z,32.9
2019-04-04T06:12:49.844Z,15.7
2019-04-04T06:14:49.887Z,19.6
2019-04-04T06:16:50.143Z,25.5
2019-04-04T06:18:50.198Z,25.5
2019-04-04T06:20:50.302Z,20.0
2019-04-04T06:22:51.965Z,19.8
2019-04-04T06:24:52.060Z,19.8
2019-04-04T06:26:49.601Z,14.7
2019-04-04T06:28:49.708Z,20.2
2019-04-04T06:30:53.251Z,130.4
2019-04-04T06:32:49.423Z,33.1
2019-04-04T06:34:49.856Z,33.1
2019-04-04T06:36:50.089Z,81.8
2019-04-04T06:38:50.207Z,33.7
2019-04-04T06:40:49.514Z,26.9
2019-04-04T06:42:49.518Z,15.3
2019-04-04T06:44:49.654Z,15.3
2019-04-04T06:46:51.297Z,27.7
2019-04-04T06:48:50.239Z,60.4
2019-04-04T06:50:50.334Z,15.1
2019-04-04T06:52:51.103Z,15.1
2019-04-04T06:54:50.281Z,15.0
2019-04-04T06:56:49.578Z,15.0
2019-04-04T06:58:49.627Z,15.2
2019-04-04T07:00:50.233Z,19.5
2019-04-04T07:02:50.408Z,37.8
2019-04-04T07:04:49.827Z,37.8
2019-04-04T07:06:50.064Z,24.1
2019-04-04T07:08:50.151Z,51.4
2019-04-04T07:10:57.652Z,51.4
2019-04-04T07:12:50.163Z,30.2
2019-04-04T07:14:50.243Z,30.2
2019-04-04T07:16:50.405Z,21.1
2019-04-04T07:18:49.896Z,15.3
2019-04-04T07:20:49.887Z,65.8
2019-04-04T07:22:49.966Z,23.8
2019-04-04T07:24:50.014Z,23.8
2019-04-04T07:26:50.183Z,21.8
2019-04-04T07:28:53.723Z,31.2
2019-04-04T07:30:50.169Z,31.2
2019-04-04T07:32:50.205Z,17.3
2019-04-04T07:34:49.695Z,17.3
2019-04-04T07:36:51.164Z,22.9
2019-04-04T07:38:49.899Z,16.9
2019-04-04T07:40:49.929Z,16.1
2019-04-04T07:42:49.957Z,16.9
2019-04-04T07:44:50.055Z,16.9
2019-04-04T07:46:50.221Z,15.7
2019-04-04T07:48:51.516Z,17.9
2019-04-04T07:50:51.380Z,17.9
2019-04-04T07:52:49.547Z,16.8
2019-04-04T07:54:49.569Z,18.6
2019-04-04T07:56:49.818Z,16.5
2019-04-04T07:58:49.868Z,18.5
2019-04-04T08:00:49.857Z,16.3
2019-04-04T08:02:49.947Z,16.3
2019-04-04T08:04:50.421Z,15.4
2019-04-04T08:06:49.707Z,17.3
2019-04-04T08:08:49.710Z,16.1
2019-04-04T08:10:49.687Z,16.1
2019-04-04T08:12:49.732Z,15.7
2019-04-04T08:14:49.753Z,15.3
2019-04-04T08:16:49.841Z,15.8
2019-04-04T08:18:49.910Z,16.4
2019-04-04T08:20:49.898Z,15.3
2019-04-04T08:22:49.879Z,15.3
2019-04-04T08:24:49.902Z,15.7
2019-04-04T08:26:49.998Z,15.4
2019-04-04T08:28:50.070Z,16.1
2019-04-04T08:30:50.114Z,15.3
2019-04-04T08:32:50.114Z,15.3
2019-04-04T08:34:49.522Z,17.0
2019-04-04T08:36:49.682Z,14.5
2019-04-04T08:38:49.684Z,15.1
2019-04-04T08:40:49.641Z,15.1
2019-04-04T08:42:49.777Z,14.6
2019-04-04T08:44:49.782Z,15.2
2019-04-04T08:46:49.997Z,16.3
2019-04-04T08:48:50.034Z,16.8
2019-04-04T08:50:50.036Z,16.8
2019-04-04T08:52:50.083Z,16.0
2019-04-04T08:54:50.097Z,16.3
2019-04-04T08:56:50.318Z,16.3
2019-04-04T08:58:51.714Z,16.1
2019-04-04T09:00:49.927Z,16.1
2019-04-04T09:02:49.991Z,16.1
2019-04-04T09:04:49.561Z,15.4
2019-04-04T09:06:49.902Z,15.2
2019-04-04T09:08:50.107Z,15.2
2019-04-04T09:10:50.222Z,15.0
2019-04-04T09:12:49.477Z,17.6
2019-04-04T09:14:49.621Z,18.4
2019-04-04T09:16:49.905Z,14.9
2019-04-04T09:18:50.205Z,14.9
2019-04-04T09:20:49.461Z,15.8
2019-04-04T09:22:49.694Z,15.7
2019-04-04T09:24:49.892Z,16.8
2019-04-04T09:26:50.288Z,16.8
2019-04-04T09:28:49.448Z,15.7
2019-04-04T09:30:49.662Z,15.7
2019-04-04T09:32:49.883Z,15.3
2019-04-04T09:34:50.381Z,15.5
2019-04-04T09:36:49.821Z,15.3
2019-04-04T09:38:49.837Z,15.3
2019-04-04T09:40:49.886Z,14.9
2019-04-04T09:42:49.906Z,15.6
2019-04-04T09:44:50.061Z,15.1
2019-04-04T09:46:49.441Z,15.5
2019-04-04T09:48:49.605Z,15.5
2019-04-04T09:50:49.786Z,15.2
2019-04-04T09:52:50.043Z,15.7
2019-04-04T09:54:50.246Z,15.7
2019-04-04T09:56:49.582Z,16.0
2019-04-04T09:58:49.872Z,16.0
2019-04-04T10:00:50.075Z,15.0
2019-04-04T10:02:50.212Z,15.4
2019-04-04T10:04:49.793Z,15.4
2019-04-04T10:06:50.175Z,14.7
2019-04-04T10:08:50.439Z,14.7
2019-04-04T10:10:49.644Z,14.6
2019-04-04T10:12:49.854Z,14.9
2019-04-04T10:14:50.064Z,14.8
2019-04-04T10:16:50.334Z,14.8
2019-04-04T10:18:49.536Z,15.6
2019-04-04T10:20:49.803Z,15.5
2019-04-04T10:22:49.997Z,15.3
2019-04-04T10:24:50.220Z,16.1
2019-04-04T10:26:49.494Z,16.1
2019-04-04T10:28:49.612Z,15.4
2019-04-04T10:30:49.903Z,15.6
2019-04-04T10:32:50.036Z,15.8
2019-04-04T10:34:49.646Z,16.8
2019-04-04T10:36:50.004Z,16.8
2019-04-04T10:38:50.194Z,16.1
2019-04-04T10:40:50.396Z,15.6
2019-04-04T10:42:49.597Z,17.3
2019-04-04T10:44:49.828Z,17.3
2019-04-04T10:46:50.069Z,15.7
2019-04-04T10:48:50.239Z,17.3
2019-04-04T10:50:50.403Z,16.3
2019-04-04T10:52:49.660Z,16.4
2019-04-04T10:54:49.825Z,16.1
2019-04-04T10:56:50.141Z,16.1
2019-04-04T10:58:50.381Z,16.4
2019-04-04T11:00:49.670Z,16.0
2019-04-04T11:02:49.978Z,16.4
2019-04-04T11:04:49.506Z,16.4
2019-04-04T11:06:49.777Z,15.2
2019-04-04T11:08:49.922Z,16.7
2019-04-04T11:10:50.328Z,15.9
2019-04-04T11:12:49.579Z,16.3
2019-04-04T11:14:49.777Z,16.3
2019-04-04T11:16:50.124Z,16.0
2019-04-04T11:18:50.320Z,16.4
2019-04-04T11:20:49.649Z,17.0
2019-04-04T11:22:49.857Z,17.1
2019-04-04T11:24:50.048Z,17.1
2019-04-04T11:26:50.389Z,16.5
2019-04-04T11:28:49.526Z,16.7
2019-04-04T11:30:49.792Z,16.4
2019-04-04T11:32:50.041Z,16.4
2019-04-04T11:34:53.241Z,16.9
2019-04-04T11:36:50.198Z,16.9
2019-04-04T11:38:49.484Z,17.4
2019-04-04T11:40:49.624Z,16.0
2019-04-04T11:42:49.867Z,16.0
2019-04-04T11:44:50.130Z,16.3
2019-04-04T11:46:49.583Z,17.3
2019-04-04T11:48:49.739Z,17.1
2019-04-04T11:50:49.883Z,17.5
2019-04-04T11:52:50.051Z,17.5
2019-04-04T11:54:50.199Z,16.6
2019-04-04T11:56:49.684Z,16.8
2019-04-04T11:58:49.877Z,16.9
2019-04-04T12:00:50.082Z,16.3
2019-04-04T12:02:50.282Z,17.1
2019-04-04T12:04:49.905Z,17.1
2019-04-04T12:06:50.122Z,17.8
2019-04-04T12:08:50.294Z,16.7
2019-04-04T12:10:49.515Z,17.1
2019-04-04T12:12:49.840Z,17.1
2019-04-04T12:14:50.050Z,17.9
2019-04-04T12:16:50.382Z,17.9
2019-04-04T12:18:49.591Z,17.3
2019-04-04T12:20:49.783Z,17.3
2019-04-04T12:22:49.955Z,17.4
2019-04-04T12:24:50.158Z,17.2
2019-04-04T12:26:49.533Z,16.6
2019-04-04T12:28:49.853Z,16.6
2019-04-04T12:30:50.042Z,16.9
2019-04-04T12:32:50.285Z,16.9
2019-04-04T12:34:49.786Z,17.3
2019-04-04T12:36:50.173Z,17.2
2019-04-04T12:38:50.370Z,16.6
2019-04-04T12:40:49.510Z,16.7
2019-04-04T12:42:49.742Z,16.7
2019-04-04T12:44:49.950Z,18.7
2019-04-04T12:46:50.303Z,18.4
2019-04-04T12:48:49.485Z,18.7
2019-04-04T12:50:49.747Z,18.7
2019-04-04T12:52:49.960Z,18.4
2019-04-04T12:54:50.175Z,21.2
2019-04-04T12:56:49.456Z,27.7
2019-04-04T12:58:49.593Z,20.4
2019-04-04T13:00:49.787Z,20.4
2019-04-04T13:02:50.001Z,17.3
2019-04-04T13:04:49.680Z,17.9
2019-04-04T13:06:50.045Z,22.4
2019-04-04T13:08:50.213Z,17.9
2019-04-04T13:10:50.358Z,17.9
2019-04-04T13:12:49.478Z,17.6
2019-04-04T13:14:49.778Z,18.1
2019-04-04T13:16:50.056Z,18.1
2019-04-04T13:18:50.323Z,17.4
2019-04-04T13:20:49.575Z,17.4
2019-04-04T13:22:49.822Z,17.3
2019-04-04T13:24:49.922Z,20.6
2019-04-04T13:26:50.244Z,20.6
2019-04-04T13:28:50.331Z,17.7
2019-04-04T13:30:49.567Z,17.7
2019-04-04T13:32:49.760Z,17.3
2019-04-04T13:34:58.941Z,16.4
2019-04-04T13:36:50.218Z,15.6
2019-04-04T13:38:49.462Z,15.6
2019-04-04T13:40:49.636Z,16.2
2019-04-04T13:42:52.588Z,15.7
2019-04-04T13:44:50.566Z,14.4
2019-04-04T13:46:49.691Z,14.8
2019-04-04T13:48:49.945Z,14.8
2019-04-04T13:50:50.163Z,13.9
2019-04-04T13:52:50.334Z,14.0
2019-04-04T13:54:49.538Z,16.3
2019-04-04T13:56:49.879Z,13.8
2019-04-04T13:58:50.130Z,13.8
2019-04-04T14:00:50.321Z,13.7
2019-04-04T14:02:49.552Z,23.5
2019-04-04T14:04:50.128Z,17.7
2019-04-04T14:06:49.622Z,17.7
2019-04-04T14:08:49.744Z,17.2
2019-04-04T14:10:57.808Z,13.7
2019-04-04T14:12:49.779Z,13.6
2019-04-04T14:14:50.067Z,11.9
2019-04-04T14:16:49.468Z,12.4
2019-04-04T14:18:49.487Z,12.4
2019-04-04T14:20:49.476Z,12.1
2019-04-04T14:22:50.980Z,19.0
2019-04-04T14:24:49.863Z,15.0
2019-04-04T14:26:49.952Z,15.0
2019-04-04T14:28:49.943Z,13.4
2019-04-04T14:30:49.913Z,12.3
2019-04-04T14:32:49.896Z,17.1
2019-04-04T14:34:50.376Z,12.4
2019-04-04T14:36:49.535Z,12.4
2019-04-04T14:38:49.543Z,12.5
2019-04-04T14:40:49.538Z,12.4
2019-04-04T14:42:49.672Z,12.5
2019-04-04T14:44:49.748Z,12.5
2019-04-04T14:46:49.797Z,11.8
2019-04-04T14:48:49.856Z,11.9
2019-04-04T14:50:49.796Z,11.7
2019-04-04T14:52:51.566Z,11.4
2019-04-04T14:54:49.445Z,12.6
2019-04-04T14:56:49.688Z,12.6
2019-04-04T14:58:49.756Z,10.4
2019-04-04T15:00:49.717Z,18.7
2019-04-04T15:02:49.760Z,13.5
2019-04-04T15:04:50.161Z,13.5
2019-04-04T15:06:50.395Z,14.3
2019-04-04T15:08:49.490Z,11.6
2019-04-04T15:10:49.506Z,11.7
2019-04-04T15:12:49.511Z,10.1
2019-04-04T15:14:49.651Z,10.1
2019-04-04T15:16:49.820Z,10.1
2019-04-04T15:18:49.777Z,9.6
2019-04-04T15:20:49.823Z,9.8
2019-04-04T15:22:49.842Z,9.8
2019-04-04T15:24:49.854Z,9.8
2019-04-04T15:26:50.145Z,12.1
2019-04-04T15:28:50.137Z,10.6
2019-04-04T15:30:50.095Z,10.4
2019-04-04T15:32:50.245Z,10.2
2019-04-04T15:34:49.645Z,10.2
2019-04-04T15:36:49.853Z,10.2
2019-04-04T15:38:49.905Z,10.2
2019-04-04T15:40:49.864Z,11.1
2019-04-04T15:42:49.886Z,10.7
2019-04-04T15:44:49.925Z,10.7
2019-04-04T15:46:50.108Z,10.5
2019-04-04T15:48:50.194Z,10.6
2019-04-04T15:50:50.205Z,11.5
2019-04-04T15:52:50.386Z,12.8
2019-04-04T15:54:49.510Z,12.8
2019-04-04T15:56:49.787Z,11.3
2019-04-04T15:58:49.797Z,11.4
2019-04-04T16:00:49.935Z,11.7
2019-04-04T16:02:50.043Z,11.3
2019-04-04T16:04:49.462Z,11.3
2019-04-04T16:06:49.693Z,11.6
2019-04-04T16:08:49.741Z,12.4
2019-04-04T16:10:49.881Z,12.4
2019-04-04T16:12:49.912Z,12.3
2019-04-04T16:14:49.878Z,12.3
2019-04-04T16:16:50.026Z,11.9
2019-04-04T16:18:50.046Z,12.1
2019-04-04T16:20:50.118Z,12.1
2019-04-04T16:22:50.211Z,12.1
2019-04-04T16:24:50.160Z,11.7
2019-04-04T16:26:50.285Z,12.1
2019-04-04T16:28:50.309Z,12.1
2019-04-04T16:30:50.383Z,11.3
2019-04-04T16:32:50.341Z,11.3
2019-04-04T16:34:52.378Z,11.1
2019-04-04T16:36:50.016Z,12.8
2019-04-04T16:38:50.196Z,11.0
2019-04-04T16:40:50.172Z,10.5
2019-04-04T16:42:50.162Z,10.5
2019-04-04T16:44:50.118Z,10.4
2019-04-04T16:46:50.338Z,10.5
2019-04-04T16:48:50.405Z,10.5
2019-04-04T16:50:49.447Z,10.4
2019-04-04T16:52:49.551Z,10.4
2019-04-04T16:54:49.784Z,9.2
2019-04-04T16:56:49.936Z,9.3
2019-04-04T16:58:49.969Z,9.2
2019-04-04T17:00:50.079Z,9.7
2019-04-04T17:02:50.109Z,9.7
2019-04-04T17:04:49.464Z,9.7
2019-04-04T17:06:49.621Z,8.2
2019-04-04T17:08:49.639Z,8.4
2019-04-04T17:10:49.590Z,9.1
2019-04-04T17:12:49.694Z,9.1
2019-04-04T17:14:49.679Z,8.2
2019-04-04T17:16:49.923Z,8.2
2019-04-04T17:18:49.952Z,9.2
2019-04-04T17:20:50.095Z,9.2
2019-04-04T17:22:50.291Z,7.9
2019-04-04T17:24:50.248Z,7.9
2019-04-04T17:26:49.469Z,7.9
2019-04-04T17:28:49.555Z,7.1
2019-04-04T17:30:50.074Z,7.1
2019-04-04T17:32:50.198Z,7.4
2019-04-04T17:34:50.196Z,7.4
2019-04-04T17:36:49.488Z,7.0
2019-04-04T17:38:50.007Z,7.0
2019-04-04T17:40:50.038Z,7.1
2019-04-04T17:42:50.081Z,7.0
2019-04-04T17:44:49.610Z,6.7
2019-04-04T17:46:49.462Z,6.4
2019-04-04T17:48:49.566Z,6.4
2019-04-04T17:50:49.619Z,8.1
2019-04-04T17:52:49.714Z,7.2
2019-04-04T17:54:50.365Z,7.1
2019-04-04T17:56:50.371Z,7.1
2019-04-04T17:58:49.441Z,7.0
2019-04-04T18:00:49.457Z,6.9
2019-04-04T18:02:49.559Z,6.8
2019-04-04T18:04:50.026Z,6.9
2019-04-04T18:06:50.345Z,6.9
2019-04-04T18:08:50.378Z,6.5
2019-04-04T18:10:50.400Z,6.7
2019-04-04T18:12:49.538Z,7.2
2019-04-04T18:14:49.618Z,7.3
2019-04-04T18:16:49.852Z,7.3
2019-04-04T18:18:49.922Z,6.0
2019-04-04T18:20:49.998Z,5.9
2019-04-04T18:22:50.110Z,6.3
2019-04-04T18:24:50.217Z,5.9
2019-04-04T18:26:50.367Z,6.3
2019-04-04T18:28:50.384Z,6.3
2019-04-04T18:30:50.360Z,6.0
2019-04-04T18:32:49.464Z,6.6
2019-04-04T18:34:49.982Z,6.6
2019-04-04T18:36:49.767Z,5.7
2019-04-04T18:38:50.017Z,5.7
2019-04-04T18:40:49.989Z,6.3
2019-04-04T18:42:53.366Z,6.8
2019-04-04T18:44:50.021Z,7.1
2019-04-04T18:46:50.183Z,7.1
2019-04-04T18:48:50.217Z,7.3
2019-04-04T18:50:50.336Z,7.0
2019-04-04T18:52:50.425Z,7.0
2019-04-04T18:54:49.444Z,8.2
2019-04-04T18:56:49.697Z,8.2
2019-04-04T18:58:49.774Z,7.7
2019-04-04T19:00:49.779Z,8.0
2019-04-04T19:02:49.880Z,8.2
2019-04-04T19:04:50.241Z,8.5
2019-04-04T19:06:50.330Z,8.5
2019-04-04T19:08:50.752Z,8.8
2019-04-04T19:10:49.998Z,9.3
2019-04-04T19:12:50.023Z,9.1
2019-04-04T19:14:50.102Z,10.0
2019-04-04T19:16:50.362Z,10.0
2019-04-04T19:18:50.358Z,9.3
2019-04-04T19:20:50.430Z,9.7
2019-04-04T19:22:49.439Z,9.7
2019-04-04T19:24:49.500Z,11.0
2019-04-04T19:26:49.728Z,11.0
2019-04-04T19:28:49.859Z,10.7
2019-04-04T19:30:49.860Z,11.3
2019-04-04T19:32:49.958Z,11.3
2019-04-04T19:34:50.260Z,11.9
2019-04-04T19:36:49.449Z,11.9
2019-04-04T19:38:49.511Z,11.9
2019-04-04T19:40:49.559Z,12.7
2019-04-04T19:42:49.534Z,12.7
2019-04-04T19:44:53.357Z,13.9
2019-04-04T19:46:50.062Z,13.9
2019-04-04T19:48:50.147Z,14.6
2019-04-04T19:50:50.227Z,15.4
2019-04-04T19:52:50.255Z,15.4
2019-04-04T19:54:50.281Z,15.4
2019-04-04T19:56:49.584Z,16.3
2019-04-04T19:58:49.631Z,16.4
2019-04-04T20:00:49.618Z,17.0
2019-04-04T20:02:49.712Z,17.6
2019-04-04T20:04:50.111Z,17.6
2019-04-04T20:06:49.513Z,17.7
2019-04-04T20:08:52.087Z,19.7
2019-04-04T20:10:49.805Z,18.6
2019-04-04T20:12:49.836Z,20.7
2019-04-04T20:14:49.885Z,20.7
2019-04-04T20:16:50.286Z,20.3
2019-04-04T20:18:50.270Z,20.9
2019-04-04T20:20:50.258Z,19.7
2019-04-04T20:22:50.411Z,19.6
2019-04-04T20:24:49.474Z,19.6
2019-04-04T20:26:49.726Z,21.0
2019-04-04T20:28:49.829Z,21.7
2019-04-04T20:30:49.930Z,21.8
2019-04-04T20:32:50.044Z,21.8
2019-04-04T20:34:50.432Z,21.4
2019-04-04T20:36:49.675Z,21.9
2019-04-04T20:38:49.706Z,21.9
2019-04-04T20:40:49.823Z,21.7
2019-04-04T20:42:49.952Z,21.7
2019-04-04T20:44:50.137Z,21.7
2019-04-04T20:46:50.303Z,22.7
2019-04-04T20:48:50.342Z,22.8
2019-04-04T20:50:50.374Z,20.8
2019-04-04T20:52:49.449Z,20.8
2019-04-04T20:54:49.463Z,22.1
2019-04-04T20:56:49.697Z,22.3
2019-04-04T20:58:49.770Z,22.2
2019-04-04T21:00:49.862Z,20.8
2019-04-04T21:02:49.932Z,20.8
2019-04-04T21:04:49.446Z,21.1
2019-04-04T21:06:49.617Z,21.8
2019-04-04T21:08:49.682Z,21.8
2019-04-04T21:10:49.733Z,21.8
2019-04-04T21:12:49.785Z,20.7
2019-04-04T21:14:49.794Z,21.3
2019-04-04T21:16:49.995Z,20.2
2019-04-04T21:18:50.033Z,21.1
2019-04-04T21:20:50.190Z,21.1
2019-04-04T21:22:50.307Z,22.1
2019-04-04T21:24:49.485Z,20.5
2019-04-04T21:26:49.845Z,20.5
2019-04-04T21:28:49.883Z,20.0
2019-04-04T21:30:49.974Z,20.0
2019-04-04T21:32:50.075Z,21.2
2019-04-04T21:34:50.384Z,21.1
2019-04-04T21:36:49.618Z,21.4
2019-04-04T21:38:49.784Z,23.4
2019-04-04T21:40:49.797Z,23.4
2019-04-04T21:42:49.880Z,21.7
2019-04-04T21:44:49.943Z,20.3
2019-04-04T21:46:50.113Z,19.4
2019-04-04T21:48:50.129Z,21.8
2019-04-04T21:50:50.286Z,21.8
2019-04-04T21:52:50.322Z,22.6
2019-04-04T21:54:50.269Z,23.5
2019-04-04T21:56:49.537Z,22.3
2019-04-04T21:58:49.649Z,23.0
2019-04-04T22:00:49.833Z,23.0
2019-04-04T22:02:49.869Z,22.8
2019-04-04T22:04:50.316Z,21.7
2019-04-04T22:06:49.514Z,22.7
2019-04-04T22:08:49.591Z,22.7
2019-04-04T22:10:49.569Z,23.4
2019-04-04T22:12:49.742Z,23.0
2019-04-04T22:14:49.864Z,24.1
2019-04-04T22:16:49.983Z,24.4
2019-04-04T22:18:50.046Z,24.4
2019-04-04T22:20:50.085Z,24.4
2019-04-04T22:22:50.190Z,22.7
2019-04-04T22:24:50.249Z,22.7
2019-04-04T22:26:50.426Z,25.7
2019-04-04T22:28:49.464Z,25.7
2019-04-04T22:30:49.742Z,26.7
2019-04-04T22:32:49.768Z,26.0
2019-04-04T22:34:50.219Z,27.4
2019-04-04T22:36:50.330Z,28.2
2019-04-04T22:38:50.390Z,28.2
2019-04-04T22:40:50.403Z,27.8
2019-04-04T22:42:49.580Z,28.7
2019-04-04T22:44:49.617Z,28.9
2019-04-04T22:46:49.837Z,27.6
2019-04-04T22:48:49.855Z,27.6
2019-04-04T22:50:49.985Z,31.3
2019-04-04T22:52:50.120Z,31.7
2019-04-04T22:54:50.183Z,30.6
2019-04-04T22:56:50.429Z,30.6
2019-04-04T22:58:49.596Z,29.2
2019-04-04T23:00:49.607Z,30.5
2019-04-04T23:02:49.759Z,34.5
2019-04-04T23:04:50.328Z,32.4
2019-04-04T23:06:49.629Z,32.4
2019-04-04T23:08:49.762Z,32.8
2019-04-04T23:10:49.814Z,31.7
2019-04-04T23:12:49.930Z,31.8
2019-04-04T23:14:50.045Z,31.8
2019-04-04T23:16:50.236Z,33.0
2019-04-04T23:18:50.320Z,34.9
2019-04-04T23:20:50.342Z,32.3
2019-04-04T23:22:52.876Z,33.8
2019-04-04T23:24:50.330Z,33.8
2019-04-04T23:26:49.639Z,32.8
2019-04-04T23:28:49.659Z,33.1
2019-04-04T23:30:49.704Z,36.9
2019-04-04T23:32:49.749Z,36.9
2019-04-04T23:34:50.163Z,34.8
2019-04-04T23:36:50.300Z,34.4
2019-04-04T23:38:50.420Z,34.1
2019-04-04T23:40:49.469Z,36.4
2019-04-04T23:42:49.548Z,34.0
2019-04-04T23:45:00.122Z,34.0
2019-04-04T23:46:49.699Z,35.6
2019-04-04T23:48:49.679Z,35.3
2019-04-04T23:50:49.711Z,35.4
2019-04-04T23:52:49.758Z,36.9
2019-04-04T23:54:49.808Z,36.9
2019-04-04T23:56:49.951Z,35.6
2019-04-04T23:58:50.160Z,35.6
